Union Point, Georgia
Current Conditions -  °F | °C
As of 1:55 AM on Thursday 27 Nov 2014 (Local Time) from K3J7 Reporting Station
Broken Clouds Broken Clouds  
Wind Chill: 42°   Ceiling: 10000
Heat Index: 46°   Visibility: 10mi
Dew Point: 34°   Wind: 8mph
Humidity: 62%   Direction: 210°SSW
Pressure: 30.03"   Gusts: NA
Location:  33.62°N, 83.07°W
Report Text: K3J7 270655Z AUTO 21007KT 10SM BKN100 08/01 A3003 RMK AO2
Loading
Personal Weather Stations






























Interactive Weather Map New forecast layout! Learn more

10-Day Weather Forecast

Advertisements
Track Severe Weather on mobile